sensor_id;sensor_type;location;lat;lon;timestamp;temperature;humidity
21459;DHT22;10891;49.350;19.386;2023-02-25T00:00:04;5.50;99.90
21459;DHT22;10891;49.350;19.386;2023-02-25T00:02:36;5.50;99.90
21459;DHT22;10891;49.350;19.386;2023-02-25T00:05:04;5.50;99.90
21459;DHT22;10891;49.350;19.386;2023-02-25T00:07:31;5.50;99.90
21459;DHT22;10891;49.350;19.386;2023-02-25T00:09:58;5.50;99.90
21459;DHT22;10891;49.350;19.386;2023-02-25T00:12:27;5.50;99.90
21459;DHT22;10891;49.350;19.386;2023-02-25T00:14:54;5.40;99.90
21459;DHT22;10891;49.350;19.386;2023-02-25T00:17:21;5.40;99.90
21459;DHT22;10891;49.350;19.386;2023-02-25T00:19:49;5.40;99.90
21459;DHT22;10891;49.350;19.386;2023-02-25T00:22:16;5.40;99.90
21459;DHT22;10891;49.350;19.386;2023-02-25T00:24:43;5.50;99.90
21459;DHT22;10891;49.350;19.386;2023-02-25T00:27:10;5.50;99.90
21459;DHT22;10891;49.350;19.386;2023-02-25T00:29:37;5.50;99.90
21459;DHT22;10891;49.350;19.386;2023-02-25T00:32:04;5.40;99.90
21459;DHT22;10891;49.350;19.386;2023-02-25T00:34:31;5.40;99.90
21459;DHT22;10891;49.350;19.386;2023-02-25T00:36:59;5.40;99.90
21459;DHT22;10891;49.350;19.386;2023-02-25T00:39:26;5.40;99.90
21459;DHT22;10891;49.350;19.386;2023-02-25T00:42:06;5.50;99.90
21459;DHT22;10891;49.350;19.386;2023-02-25T00:44:33;5.50;99.90
21459;DHT22;10891;49.350;19.386;2023-02-25T00:47:00;5.50;99.90
21459;DHT22;10891;49.350;19.386;2023-02-25T00:49:27;5.50;99.90
21459;DHT22;10891;49.350;19.386;2023-02-25T00:51:53;5.50;99.90
21459;DHT22;10891;49.350;19.386;2023-02-25T00:54:23;5.50;99.90
21459;DHT22;10891;49.350;19.386;2023-02-25T00:56:50;5.50;99.90
21459;DHT22;10891;49.350;19.386;2023-02-25T00:59:17;5.50;99.90
21459;DHT22;10891;49.350;19.386;2023-02-25T01:01:44;5.40;99.90
21459;DHT22;10891;49.350;19.386;2023-02-25T01:04:11;5.50;99.90
21459;DHT22;10891;49.350;19.386;2023-02-25T01:06:37;5.50;99.90
21459;DHT22;10891;49.350;19.386;2023-02-25T01:09:06;5.50;99.90
21459;DHT22;10891;49.350;19.386;2023-02-25T01:11:41;5.40;99.90
21459;DHT22;10891;49.350;19.386;2023-02-25T01:14:11;5.40;99.90
21459;DHT22;10891;49.350;19.386;2023-02-25T01:16:38;5.40;99.90
21459;DHT22;10891;49.350;19.386;2023-02-25T01:19:08;5.30;99.90
21459;DHT22;10891;49.350;19.386;2023-02-25T01:21:37;5.20;99.90
21459;DHT22;10891;49.350;19.386;2023-02-25T01:24:07;5.20;99.90
21459;DHT22;10891;49.350;19.386;2023-02-25T01:26:37;5.20;99.90
21459;DHT22;10891;49.350;19.386;2023-02-25T01:29:08;5.10;99.90
21459;DHT22;10891;49.350;19.386;2023-02-25T01:31:35;5.10;99.90
21459;DHT22;10891;49.350;19.386;2023-02-25T01:34:03;5.00;99.90
21459;DHT22;10891;49.350;19.386;2023-02-25T01:36:31;5.00;99.90
21459;DHT22;10891;49.350;19.386;2023-02-25T01:38:59;5.00;99.90
21459;DHT22;10891;49.350;19.386;2023-02-25T01:41:28;4.90;99.90
21459;DHT22;10891;49.350;19.386;2023-02-25T01:44:09;4.90;99.90
21459;DHT22;10891;49.350;19.386;2023-02-25T01:46:37;4.90;99.90
21459;DHT22;10891;49.350;19.386;2023-02-25T01:49:06;4.80;99.90
21459;DHT22;10891;49.350;19.386;2023-02-25T01:51:35;4.70;99.90
21459;DHT22;10891;49.350;19.386;2023-02-25T01:54:03;4.60;99.90
21459;DHT22;10891;49.350;19.386;2023-02-25T01:56:32;4.50;99.90
21459;DHT22;10891;49.350;19.386;2023-02-25T01:59:00;4.40;99.90
21459;DHT22;10891;49.350;19.386;2023-02-25T02:01:31;4.40;99.90
21459;DHT22;10891;49.350;19.386;2023-02-25T02:04:00;4.40;99.90
21459;DHT22;10891;49.350;19.386;2023-02-25T02:06:33;4.40;99.90
21459;DHT22;10891;49.350;19.386;2023-02-25T02:09:01;4.40;99.90
21459;DHT22;10891;49.350;19.386;2023-02-25T02:11:28;4.40;99.90
21459;DHT22;10891;49.350;19.386;2023-02-25T02:13:56;4.40;99.90
21459;DHT22;10891;49.350;19.386;2023-02-25T02:16:42;4.40;99.90
21459;DHT22;10891;49.350;19.386;2023-02-25T02:19:24;4.50;99.90
21459;DHT22;10891;49.350;19.386;2023-02-25T02:21:59;4.40;99.90
21459;DHT22;10891;49.350;19.386;2023-02-25T02:25:13;4.40;99.90
21459;DHT22;10891;49.350;19.386;2023-02-25T02:28:20;4.40;99.90
21459;DHT22;10891;49.350;19.386;2023-02-25T02:31:10;4.40;99.90
21459;DHT22;10891;49.350;19.386;2023-02-25T02:33:43;4.40;99.90
21459;DHT22;10891;49.350;19.386;2023-02-25T02:36:15;4.30;99.90
21459;DHT22;10891;49.350;19.386;2023-02-25T02:38:49;4.20;99.90
21459;DHT22;10891;49.350;19.386;2023-02-25T02:41:25;4.20;99.90
21459;DHT22;10891;49.350;19.386;2023-02-25T02:44:04;4.20;99.90
21459;DHT22;10891;49.350;19.386;2023-02-25T02:46:38;4.20;99.90
21459;DHT22;10891;49.350;19.386;2023-02-25T02:49:09;4.20;99.90
21459;DHT22;10891;49.350;19.386;2023-02-25T02:51:42;4.20;99.90
21459;DHT22;10891;49.350;19.386;2023-02-25T02:54:12;4.20;99.90
21459;DHT22;10891;49.350;19.386;2023-02-25T02:56:42;4.30;99.90
21459;DHT22;10891;49.350;19.386;2023-02-25T02:59:13;4.20;99.90
21459;DHT22;10891;49.350;19.386;2023-02-25T03:01:46;4.30;99.90
21459;DHT22;10891;49.350;19.386;2023-02-25T03:04:19;4.30;99.90
21459;DHT22;10891;49.350;19.386;2023-02-25T03:06:49;4.40;99.90
21459;DHT22;10891;49.350;19.386;2023-02-25T03:09:19;4.40;99.90
21459;DHT22;10891;49.350;19.386;2023-02-25T03:11:48;4.40;99.90
21459;DHT22;10891;49.350;19.386;2023-02-25T03:14:14;4.40;99.90
21459;DHT22;10891;49.350;19.386;2023-02-25T03:16:45;4.40;99.90
21459;DHT22;10891;49.350;19.386;2023-02-25T03:19:15;4.40;99.90
21459;DHT22;10891;49.350;19.386;2023-02-25T03:21:48;4.40;99.90
21459;DHT22;10891;49.350;19.386;2023-02-25T03:24:18;4.40;99.90
21459;DHT22;10891;49.350;19.386;2023-02-25T03:26:48;4.40;99.90
21459;DHT22;10891;49.350;19.386;2023-02-25T03:29:18;4.40;99.90
21459;DHT22;10891;49.350;19.386;2023-02-25T03:31:49;4.50;99.90
21459;DHT22;10891;49.350;19.386;2023-02-25T03:34:24;4.40;99.90
21459;DHT22;10891;49.350;19.386;2023-02-25T03:36:55;4.40;99.90
21459;DHT22;10891;49.350;19.386;2023-02-25T03:39:27;4.50;99.90
21459;DHT22;10891;49.350;19.386;2023-02-25T03:41:56;4.40;99.90
21459;DHT22;10891;49.350;19.386;2023-02-25T03:44:28;4.30;99.90
21459;DHT22;10891;49.350;19.386;2023-02-25T03:46:59;4.30;99.90
21459;DHT22;10891;49.350;19.386;2023-02-25T03:49:29;4.30;99.90
21459;DHT22;10891;49.350;19.386;2023-02-25T03:52:02;4.20;99.90
21459;DHT22;10891;49.350;19.386;2023-02-25T03:54:30;4.20;99.90
21459;DHT22;10891;49.350;19.386;2023-02-25T03:56:57;4.10;99.90
21459;DHT22;10891;49.350;19.386;2023-02-25T03:59:24;4.10;99.90
21459;DHT22;10891;49.350;19.386;2023-02-25T04:01:53;4.10;99.90
21459;DHT22;10891;49.350;19.386;2023-02-25T04:04:22;4.10;99.90
21459;DHT22;10891;49.350;19.386;2023-02-25T04:06:49;4.00;99.90
21459;DHT22;10891;49.350;19.386;2023-02-25T04:09:16;4.00;99.90
21459;DHT22;10891;49.350;19.386;2023-02-25T04:11:43;4.00;99.90
21459;DHT22;10891;49.350;19.386;2023-02-25T04:14:10;4.00;99.90
21459;DHT22;10891;49.350;19.386;2023-02-25T04:16:37;3.80;99.90
21459;DHT22;10891;49.350;19.386;2023-02-25T04:19:03;3.70;99.90
21459;DHT22;10891;49.350;19.386;2023-02-25T04:21:35;3.70;99.90
21459;DHT22;10891;49.350;19.386;2023-02-25T04:24:03;3.50;99.90
21459;DHT22;10891;49.350;19.386;2023-02-25T04:26:31;3.40;99.90
21459;DHT22;10891;49.350;19.386;2023-02-25T04:28:58;3.40;99.90
21459;DHT22;10891;49.350;19.386;2023-02-25T04:31:25;3.40;99.90
21459;DHT22;10891;49.350;19.386;2023-02-25T04:33:52;3.40;99.90
21459;DHT22;10891;49.350;19.386;2023-02-25T04:36:24;3.30;99.90
21459;DHT22;10891;49.350;19.386;2023-02-25T04:38:53;3.30;99.90
21459;DHT22;10891;49.350;19.386;2023-02-25T04:41:20;3.20;99.90
21459;DHT22;10891;49.350;19.386;2023-02-25T04:43:47;3.20;99.90
21459;DHT22;10891;49.350;19.386;2023-02-25T04:46:14;3.20;99.90
21459;DHT22;10891;49.350;19.386;2023-02-25T04:48:40;3.20;99.90
21459;DHT22;10891;49.350;19.386;2023-02-25T04:51:08;3.20;99.90
21459;DHT22;10891;49.350;19.386;2023-02-25T04:53:35;3.20;99.90
21459;DHT22;10891;49.350;19.386;2023-02-25T04:56:05;3.30;99.90
21459;DHT22;10891;49.350;19.386;2023-02-25T04:58:33;3.30;99.90
21459;DHT22;10891;49.350;19.386;2023-02-25T05:01:00;3.10;99.90
21459;DHT22;10891;49.350;19.386;2023-02-25T05:03:28;2.90;99.90
21459;DHT22;10891;49.350;19.386;2023-02-25T05:05:55;2.40;99.90
21459;DHT22;10891;49.350;19.386;2023-02-25T05:08:22;2.10;99.90
21459;DHT22;10891;49.350;19.386;2023-02-25T05:10:49;2.00;99.90
21459;DHT22;10891;49.350;19.386;2023-02-25T05:13:18;2.00;99.90
21459;DHT22;10891;49.350;19.386;2023-02-25T05:15:45;2.00;99.90
21459;DHT22;10891;49.350;19.386;2023-02-25T05:18:12;2.10;99.90
21459;DHT22;10891;49.350;19.386;2023-02-25T05:20:40;2.20;99.90
21459;DHT22;10891;49.350;19.386;2023-02-25T05:23:07;2.20;99.90
21459;DHT22;10891;49.350;19.386;2023-02-25T05:25:35;2.30;99.90
21459;DHT22;10891;49.350;19.386;2023-02-25T05:28:05;2.20;99.90
21459;DHT22;10891;49.350;19.386;2023-02-25T05:30:34;2.20;99.90
21459;DHT22;10891;49.350;19.386;2023-02-25T05:33:02;2.20;99.90
21459;DHT22;10891;49.350;19.386;2023-02-25T05:35:30;2.20;99.90
21459;DHT22;10891;49.350;19.386;2023-02-25T05:37:58;2.20;99.90
21459;DHT22;10891;49.350;19.386;2023-02-25T05:40:25;2.10;99.90
21459;DHT22;10891;49.350;19.386;2023-02-25T05:42:52;2.00;99.90
21459;DHT22;10891;49.350;19.386;2023-02-25T05:45:18;2.00;99.90
21459;DHT22;10891;49.350;19.386;2023-02-25T05:47:47;1.90;99.90
21459;DHT22;10891;49.350;19.386;2023-02-25T05:50:14;1.90;99.90
21459;DHT22;10891;49.350;19.386;2023-02-25T05:52:41;1.90;99.90
21459;DHT22;10891;49.350;19.386;2023-02-25T05:55:09;1.90;99.90
21459;DHT22;10891;49.350;19.386;2023-02-25T05:57:36;1.90;99.90
21459;DHT22;10891;49.350;19.386;2023-02-25T06:00:04;1.90;99.90
21459;DHT22;10891;49.350;19.386;2023-02-25T06:02:34;2.00;99.90
21459;DHT22;10891;49.350;19.386;2023-02-25T06:05:04;2.10;99.90
21459;DHT22;10891;49.350;19.386;2023-02-25T06:07:31;2.10;99.90
21459;DHT22;10891;49.350;19.386;2023-02-25T06:09:59;2.10;99.90
21459;DHT22;10891;49.350;19.386;2023-02-25T06:12:28;2.10;99.90
21459;DHT22;10891;49.350;19.386;2023-02-25T06:14:55;2.10;99.90
21459;DHT22;10891;49.350;19.386;2023-02-25T06:17:22;2.00;99.90
21459;DHT22;10891;49.350;19.386;2023-02-25T06:19:50;1.90;99.90
21459;DHT22;10891;49.350;19.386;2023-02-25T06:22:19;1.90;99.90
21459;DHT22;10891;49.350;19.386;2023-02-25T06:24:47;1.90;99.90
21459;DHT22;10891;49.350;19.386;2023-02-25T06:27:15;2.00;99.90
21459;DHT22;10891;49.350;19.386;2023-02-25T06:29:42;1.90;99.90
21459;DHT22;10891;49.350;19.386;2023-02-25T06:32:10;1.80;99.90
21459;DHT22;10891;49.350;19.386;2023-02-25T06:34:37;1.80;99.90
21459;DHT22;10891;49.350;19.386;2023-02-25T06:37:05;1.80;99.90
21459;DHT22;10891;49.350;19.386;2023-02-25T06:39:34;1.80;99.90
21459;DHT22;10891;49.350;19.386;2023-02-25T06:42:01;1.90;99.90
21459;DHT22;10891;49.350;19.386;2023-02-25T06:44:28;1.90;99.90
21459;DHT22;10891;49.350;19.386;2023-02-25T06:46:55;1.90;99.90
21459;DHT22;10891;49.350;19.386;2023-02-25T06:49:22;1.90;99.90
21459;DHT22;10891;49.350;19.386;2023-02-25T06:51:49;1.90;99.90
21459;DHT22;10891;49.350;19.386;2023-02-25T06:54:17;1.90;99.90
21459;DHT22;10891;49.350;19.386;2023-02-25T06:56:45;1.80;99.90
21459;DHT22;10891;49.350;19.386;2023-02-25T06:59:13;1.80;99.90
21459;DHT22;10891;49.350;19.386;2023-02-25T07:01:40;1.70;99.90
21459;DHT22;10891;49.350;19.386;2023-02-25T07:04:08;1.70;99.90
21459;DHT22;10891;49.350;19.386;2023-02-25T07:06:35;1.60;99.90
21459;DHT22;10891;49.350;19.386;2023-02-25T07:09:02;1.50;99.90
21459;DHT22;10891;49.350;19.386;2023-02-25T07:11:31;1.60;99.90
21459;DHT22;10891;49.350;19.386;2023-02-25T07:14:01;1.60;99.90
21459;DHT22;10891;49.350;19.386;2023-02-25T07:16:28;1.60;99.90
21459;DHT22;10891;49.350;19.386;2023-02-25T07:18:55;1.80;99.90
21459;DHT22;10891;49.350;19.386;2023-02-25T07:21:23;1.90;99.90
21459;DHT22;10891;49.350;19.386;2023-02-25T07:23:54;1.90;99.90
21459;DHT22;10891;49.350;19.386;2023-02-25T07:26:22;2.00;99.90
21459;DHT22;10891;49.350;19.386;2023-02-25T07:28:53;2.30;99.90
21459;DHT22;10891;49.350;19.386;2023-02-25T07:31:22;2.50;99.90
21459;DHT22;10891;49.350;19.386;2023-02-25T07:33:49;2.80;99.90
21459;DHT22;10891;49.350;19.386;2023-02-25T07:36:17;2.90;99.90
21459;DHT22;10891;49.350;19.386;2023-02-25T07:38:44;3.10;99.90
21459;DHT22;10891;49.350;19.386;2023-02-25T07:41:15;3.10;99.90
21459;DHT22;10891;49.350;19.386;2023-02-25T07:43:42;3.00;99.90
21459;DHT22;10891;49.350;19.386;2023-02-25T07:46:09;2.90;99.90
21459;DHT22;10891;49.350;19.386;2023-02-25T07:48:39;2.60;99.90
21459;DHT22;10891;49.350;19.386;2023-02-25T07:51:07;2.70;99.90
21459;DHT22;10891;49.350;19.386;2023-02-25T07:53:34;2.60;99.90
21459;DHT22;10891;49.350;19.386;2023-02-25T07:56:03;2.50;99.90
21459;DHT22;10891;49.350;19.386;2023-02-25T07:58:31;2.40;99.90
21459;DHT22;10891;49.350;19.386;2023-02-25T08:00:58;2.30;99.90
21459;DHT22;10891;49.350;19.386;2023-02-25T08:03:27;2.20;99.90
21459;DHT22;10891;49.350;19.386;2023-02-25T08:05:56;2.10;99.90
21459;DHT22;10891;49.350;19.386;2023-02-25T08:08:27;2.20;99.90
21459;DHT22;10891;49.350;19.386;2023-02-25T08:10:54;2.50;99.90
21459;DHT22;10891;49.350;19.386;2023-02-25T08:13:21;2.80;99.90
21459;DHT22;10891;49.350;19.386;2023-02-25T08:15:48;3.00;99.90
21459;DHT22;10891;49.350;19.386;2023-02-25T08:18:15;3.20;99.90
21459;DHT22;10891;49.350;19.386;2023-02-25T08:20:44;3.50;99.90
21459;DHT22;10891;49.350;19.386;2023-02-25T08:23:14;3.60;99.90
21459;DHT22;10891;49.350;19.386;2023-02-25T08:25:41;3.50;99.90
21459;DHT22;10891;49.350;19.386;2023-02-25T08:28:08;3.50;99.90
21459;DHT22;10891;49.350;19.386;2023-02-25T08:30:35;3.40;99.90
21459;DHT22;10891;49.350;19.386;2023-02-25T08:33:03;3.30;99.90
21459;DHT22;10891;49.350;19.386;2023-02-25T08:35:30;3.10;99.90
21459;DHT22;10891;49.350;19.386;2023-02-25T08:37:57;2.70;99.90
21459;DHT22;10891;49.350;19.386;2023-02-25T08:40:26;2.60;99.90
21459;DHT22;10891;49.350;19.386;2023-02-25T08:42:53;2.60;99.90
21459;DHT22;10891;49.350;19.386;2023-02-25T08:45:21;2.80;99.90
21459;DHT22;10891;49.350;19.386;2023-02-25T08:47:48;2.90;99.90
21459;DHT22;10891;49.350;19.386;2023-02-25T08:50:16;3.10;99.90
21459;DHT22;10891;49.350;19.386;2023-02-25T08:52:43;3.10;99.90
21459;DHT22;10891;49.350;19.386;2023-02-25T08:55:10;2.90;99.90
21459;DHT22;10891;49.350;19.386;2023-02-25T08:57:41;2.80;99.90
21459;DHT22;10891;49.350;19.386;2023-02-25T09:00:10;2.60;99.90
21459;DHT22;10891;49.350;19.386;2023-02-25T09:02:39;2.50;99.90
21459;DHT22;10891;49.350;19.386;2023-02-25T09:05:07;2.50;99.90
21459;DHT22;10891;49.350;19.386;2023-02-25T09:07:34;2.50;99.90
21459;DHT22;10891;49.350;19.386;2023-02-25T09:10:02;2.60;99.90
21459;DHT22;10891;49.350;19.386;2023-02-25T09:12:31;2.70;99.90
21459;DHT22;10891;49.350;19.386;2023-02-25T09:14:59;2.70;99.90
21459;DHT22;10891;49.350;19.386;2023-02-25T09:17:28;2.70;99.90
21459;DHT22;10891;49.350;19.386;2023-02-25T09:19:55;2.70;99.90
21459;DHT22;10891;49.350;19.386;2023-02-25T09:22:25;2.80;99.90
21459;DHT22;10891;49.350;19.386;2023-02-25T09:24:52;2.80;99.90
21459;DHT22;10891;49.350;19.386;2023-02-25T09:27:20;2.90;99.90
21459;DHT22;10891;49.350;19.386;2023-02-25T09:29:47;2.90;99.90
21459;DHT22;10891;49.350;19.386;2023-02-25T09:32:18;3.00;99.90
21459;DHT22;10891;49.350;19.386;2023-02-25T09:34:45;3.10;99.90
21459;DHT22;10891;49.350;19.386;2023-02-25T09:37:13;3.10;99.90
21459;DHT22;10891;49.350;19.386;2023-02-25T09:39:40;3.20;99.90
21459;DHT22;10891;49.350;19.386;2023-02-25T09:42:09;3.40;99.90
21459;DHT22;10891;49.350;19.386;2023-02-25T09:44:39;3.60;99.90
21459;DHT22;10891;49.350;19.386;2023-02-25T09:47:12;3.90;99.90
21459;DHT22;10891;49.350;19.386;2023-02-25T09:49:45;4.00;99.90
21459;DHT22;10891;49.350;19.386;2023-02-25T09:52:16;4.20;99.90
21459;DHT22;10891;49.350;19.386;2023-02-25T09:54:51;4.40;99.90
21459;DHT22;10891;49.350;19.386;2023-02-25T09:57:21;4.50;99.90
21459;DHT22;10891;49.350;19.386;2023-02-25T09:59:50;4.70;99.90
21459;DHT22;10891;49.350;19.386;2023-02-25T10:02:34;4.90;99.90
21459;DHT22;10891;49.350;19.386;2023-02-25T10:05:13;5.10;99.90
21459;DHT22;10891;49.350;19.386;2023-02-25T10:07:52;5.10;99.90
21459;DHT22;10891;49.350;19.386;2023-02-25T10:10:29;5.10;99.90
21459;DHT22;10891;49.350;19.386;2023-02-25T10:13:03;4.90;99.90
21459;DHT22;10891;49.350;19.386;2023-02-25T10:15:45;5.00;99.90
21459;DHT22;10891;49.350;19.386;2023-02-25T10:18:25;5.00;99.90
21459;DHT22;10891;49.350;19.386;2023-02-25T10:21:07;5.00;99.90
21459;DHT22;10891;49.350;19.386;2023-02-25T10:23:55;5.10;99.90
21459;DHT22;10891;49.350;19.386;2023-02-25T10:26:29;5.20;99.90
21459;DHT22;10891;49.350;19.386;2023-02-25T10:29:01;5.10;99.90
21459;DHT22;10891;49.350;19.386;2023-02-25T10:31:30;4.70;99.90
21459;DHT22;10891;49.350;19.386;2023-02-25T10:34:01;4.60;99.90
21459;DHT22;10891;49.350;19.386;2023-02-25T10:36:34;4.90;99.90
21459;DHT22;10891;49.350;19.386;2023-02-25T10:39:04;5.10;99.90
21459;DHT22;10891;49.350;19.386;2023-02-25T10:41:32;5.30;99.90
21459;DHT22;10891;49.350;19.386;2023-02-25T10:44:01;5.60;99.90
21459;DHT22;10891;49.350;19.386;2023-02-25T10:46:31;5.70;99.90
21459;DHT22;10891;49.350;19.386;2023-02-25T10:49:00;5.50;99.90
21459;DHT22;10891;49.350;19.386;2023-02-25T10:51:28;5.30;99.90
21459;DHT22;10891;49.350;19.386;2023-02-25T10:54:10;5.20;99.90
21459;DHT22;10891;49.350;19.386;2023-02-25T10:56:41;5.10;99.90
21459;DHT22;10891;49.350;19.386;2023-02-25T10:59:24;5.30;99.90
21459;DHT22;10891;49.350;19.386;2023-02-25T11:01:53;5.40;99.90
21459;DHT22;10891;49.350;19.386;2023-02-25T11:04:23;5.50;99.90
21459;DHT22;10891;49.350;19.386;2023-02-25T11:06:53;5.50;99.90
21459;DHT22;10891;49.350;19.386;2023-02-25T11:09:31;5.20;99.90
21459;DHT22;10891;49.350;19.386;2023-02-25T11:12:15;5.00;99.90
21459;DHT22;10891;49.350;19.386;2023-02-25T11:14:44;4.80;99.90
21459;DHT22;10891;49.350;19.386;2023-02-25T11:17:14;4.50;99.90
21459;DHT22;10891;49.350;19.386;2023-02-25T11:19:46;4.40;99.90
21459;DHT22;10891;49.350;19.386;2023-02-25T11:22:17;4.40;99.90
21459;DHT22;10891;49.350;19.386;2023-02-25T11:24:54;4.30;99.90
21459;DHT22;10891;49.350;19.386;2023-02-25T11:27:31;4.20;99.90
21459;DHT22;10891;49.350;19.386;2023-02-25T11:30:03;4.20;99.90
21459;DHT22;10891;49.350;19.386;2023-02-25T11:32:31;4.50;99.90
21459;DHT22;10891;49.350;19.386;2023-02-25T11:35:01;4.70;99.90
21459;DHT22;10891;49.350;19.386;2023-02-25T11:37:35;5.00;99.90
21459;DHT22;10891;49.350;19.386;2023-02-25T11:40:20;5.00;99.90
21459;DHT22;10891;49.350;19.386;2023-02-25T11:43:01;4.80;99.90
21459;DHT22;10891;49.350;19.386;2023-02-25T11:45:30;4.90;99.90
21459;DHT22;10891;49.350;19.386;2023-02-25T11:47:57;5.10;99.90
21459;DHT22;10891;49.350;19.386;2023-02-25T11:50:27;5.40;99.90
21459;DHT22;10891;49.350;19.386;2023-02-25T11:53:03;5.50;99.90
21459;DHT22;10891;49.350;19.386;2023-02-25T11:55:50;5.20;99.90
21459;DHT22;10891;49.350;19.386;2023-02-25T11:58:28;5.00;99.90
21459;DHT22;10891;49.350;19.386;2023-02-25T12:01:01;4.80;99.90
21459;DHT22;10891;49.350;19.386;2023-02-25T12:03:55;4.70;99.90
21459;DHT22;10891;49.350;19.386;2023-02-25T12:06:36;4.80;99.90
21459;DHT22;10891;49.350;19.386;2023-02-25T12:09:43;5.10;99.90
21459;DHT22;10891;49.350;19.386;2023-02-25T12:15:52;5.40;99.90
21459;DHT22;10891;49.350;19.386;2023-02-25T12:30:50;5.60;99.90
21459;DHT22;10891;49.350;19.386;2023-02-25T12:33:53;5.50;99.90
21459;DHT22;10891;49.350;19.386;2023-02-25T12:36:34;5.20;99.90
21459;DHT22;10891;49.350;19.386;2023-02-25T12:39:21;5.10;99.90
21459;DHT22;10891;49.350;19.386;2023-02-25T12:42:03;5.00;99.90
21459;DHT22;10891;49.350;19.386;2023-02-25T12:44:58;5.30;99.90
21459;DHT22;10891;49.350;19.386;2023-02-25T12:47:48;5.30;99.90
21459;DHT22;10891;49.350;19.386;2023-02-25T12:50:37;5.40;99.90
21459;DHT22;10891;49.350;19.386;2023-02-25T12:53:25;5.70;99.90
21459;DHT22;10891;49.350;19.386;2023-02-25T12:56:26;5.60;99.90
21459;DHT22;10891;49.350;19.386;2023-02-25T12:59:10;5.30;99.90
21459;DHT22;10891;49.350;19.386;2023-02-25T13:02:01;4.80;99.90
21459;DHT22;10891;49.350;19.386;2023-02-25T13:10:56;2.50;99.90
21459;DHT22;10891;49.350;19.386;2023-02-25T13:13:47;2.40;99.90
21459;DHT22;10891;49.350;19.386;2023-02-25T13:16:26;2.30;99.90
21459;DHT22;10891;49.350;19.386;2023-02-25T13:19:11;2.40;99.90
21459;DHT22;10891;49.350;19.386;2023-02-25T13:21:51;2.60;99.90
21459;DHT22;10891;49.350;19.386;2023-02-25T13:24:40;2.90;99.90
21459;DHT22;10891;49.350;19.386;2023-02-25T13:30:32;3.10;99.90
21459;DHT22;10891;49.350;19.386;2023-02-25T13:33:29;3.20;99.90
21459;DHT22;10891;49.350;19.386;2023-02-25T13:36:07;3.30;99.90
21459;DHT22;10891;49.350;19.386;2023-02-25T13:38:54;3.30;99.90
21459;DHT22;10891;49.350;19.386;2023-02-25T13:41:35;3.40;99.90
21459;DHT22;10891;49.350;19.386;2023-02-25T13:44:31;3.30;99.90
21459;DHT22;10891;49.350;19.386;2023-02-25T13:47:34;3.40;99.90
21459;DHT22;10891;49.350;19.386;2023-02-25T13:50:36;3.60;99.90
21459;DHT22;10891;49.350;19.386;2023-02-25T13:53:18;4.10;99.90
21459;DHT22;10891;49.350;19.386;2023-02-25T13:56:31;4.40;99.90
21459;DHT22;10891;49.350;19.386;2023-02-25T13:59:17;4.40;99.90
21459;DHT22;10891;49.350;19.386;2023-02-25T14:01:54;4.00;99.90
21459;DHT22;10891;49.350;19.386;2023-02-25T14:04:43;3.70;99.90
21459;DHT22;10891;49.350;19.386;2023-02-25T14:07:46;3.40;99.90
21459;DHT22;10891;49.350;19.386;2023-02-25T14:10:37;3.30;99.90
21459;DHT22;10891;49.350;19.386;2023-02-25T14:13:36;3.40;99.90
21459;DHT22;10891;49.350;19.386;2023-02-25T14:19:20;4.40;99.90
21459;DHT22;10891;49.350;19.386;2023-02-25T14:22:24;4.80;99.90
21459;DHT22;10891;49.350;19.386;2023-02-25T14:25:00;5.10;99.90
21459;DHT22;10891;49.350;19.386;2023-02-25T14:27:35;5.40;99.90
21459;DHT22;10891;49.350;19.386;2023-02-25T14:30:21;5.60;99.90
21459;DHT22;10891;49.350;19.386;2023-02-25T14:36:05;5.50;99.90
21459;DHT22;10891;49.350;19.386;2023-02-25T14:38:47;5.30;99.90
21459;DHT22;10891;49.350;19.386;2023-02-25T14:41:29;5.60;99.90
21459;DHT22;10891;49.350;19.386;2023-02-25T14:44:04;5.50;99.90
21459;DHT22;10891;49.350;19.386;2023-02-25T14:46:39;5.40;99.90
21459;DHT22;10891;49.350;19.386;2023-02-25T14:49:12;5.40;99.90
21459;DHT22;10891;49.350;19.386;2023-02-25T14:52:07;5.10;99.90
21459;DHT22;10891;49.350;19.386;2023-02-25T14:58:15;4.40;99.90
21459;DHT22;10891;49.350;19.386;2023-02-25T15:01:05;4.10;99.90
21459;DHT22;10891;49.350;19.386;2023-02-25T15:03:57;4.10;99.90
21459;DHT22;10891;49.350;19.386;2023-02-25T15:06:41;3.80;99.90
21459;DHT22;10891;49.350;19.386;2023-02-25T15:09:28;3.40;99.90
21459;DHT22;10891;49.350;19.386;2023-02-25T15:12:22;3.00;99.90
21459;DHT22;10891;49.350;19.386;2023-02-25T15:18:33;2.70;99.90
21459;DHT22;10891;49.350;19.386;2023-02-25T15:21:38;2.50;99.90
21459;DHT22;10891;49.350;19.386;2023-02-25T15:27:00;2.30;99.90
21459;DHT22;10891;49.350;19.386;2023-02-25T15:29:54;2.10;99.90
21459;DHT22;10891;49.350;19.386;2023-02-25T15:32:24;2.10;99.90
21459;DHT22;10891;49.350;19.386;2023-02-25T15:34:55;2.00;99.90
21459;DHT22;10891;49.350;19.386;2023-02-25T15:37:31;1.90;99.90
21459;DHT22;10891;49.350;19.386;2023-02-25T15:40:00;1.90;99.90
21459;DHT22;10891;49.350;19.386;2023-02-25T15:42:45;1.90;99.90
21459;DHT22;10891;49.350;19.386;2023-02-25T15:45:33;2.00;99.90
21459;DHT22;10891;49.350;19.386;2023-02-25T15:48:31;1.90;99.90
21459;DHT22;10891;49.350;19.386;2023-02-25T15:51:00;1.80;99.90
21459;DHT22;10891;49.350;19.386;2023-02-25T15:53:46;1.60;99.90
21459;DHT22;10891;49.350;19.386;2023-02-25T15:59:43;1.50;99.90
21459;DHT22;10891;49.350;19.386;2023-02-25T16:05:04;1.40;99.90
21459;DHT22;10891;49.350;19.386;2023-02-25T16:07:43;1.30;99.90
21459;DHT22;10891;49.350;19.386;2023-02-25T16:10:21;1.20;99.90
21459;DHT22;10891;49.350;19.386;2023-02-25T16:12:51;1.10;99.90
21459;DHT22;10891;49.350;19.386;2023-02-25T16:15:25;1.10;99.90
21459;DHT22;10891;49.350;19.386;2023-02-25T16:17:56;1.00;99.90
21459;DHT22;10891;49.350;19.386;2023-02-25T16:20:27;1.10;99.90
21459;DHT22;10891;49.350;19.386;2023-02-25T16:22:57;1.10;99.90
21459;DHT22;10891;49.350;19.386;2023-02-25T16:25:35;1.10;99.90
21459;DHT22;10891;49.350;19.386;2023-02-25T16:28:09;1.00;99.90
21459;DHT22;10891;49.350;19.386;2023-02-25T16:30:44;0.90;99.90
21459;DHT22;10891;49.350;19.386;2023-02-25T16:33:19;0.90;99.90
21459;DHT22;10891;49.350;19.386;2023-02-25T16:35:50;0.90;99.90
21459;DHT22;10891;49.350;19.386;2023-02-25T16:38:24;0.90;99.90
21459;DHT22;10891;49.350;19.386;2023-02-25T16:40:54;0.90;99.90
21459;DHT22;10891;49.350;19.386;2023-02-25T16:43:26;0.90;99.90
21459;DHT22;10891;49.350;19.386;2023-02-25T16:45:56;0.90;99.90
21459;DHT22;10891;49.350;19.386;2023-02-25T16:48:28;0.90;99.90
21459;DHT22;10891;49.350;19.386;2023-02-25T16:51:07;0.90;99.90
21459;DHT22;10891;49.350;19.386;2023-02-25T16:53:35;0.90;99.90